Time;durP1;ratioP1;P1;durP2;ratioP2;P2;SDS_P1;SDS_P2;PMS_P1;PMS_P2;Temp;Humidity;BMP_temperature;BMP_pressure;BME280_temperature;BME280_humidity;BME280_pressure;Samples;Min_cycle;Max_cycle;Signal;HPM_P1;HPM_P2
2022/04/12 00:00:23;;;;;;;;;;;19.90;48.30;;;;;;5024993;28;20738;-53
2022/04/12 00:02:49;;;;;;;;;;;19.90;48.20;;;;;;5026704;28;19921;-52
2022/04/12 00:05:14;;;;;;;;;;;19.90;48.20;;;;;;5026308;28;19948;-49
2022/04/12 00:07:40;;;;;;;;;;;19.90;48.20;;;;;;5025603;28;19928;-53
2022/04/12 00:10:06;;;;;;;;;;;19.90;48.20;;;;;;5024685;28;19963;-50
2022/04/12 00:12:31;;;;;;;;;;;19.90;48.20;;;;;;5026408;28;19988;-49
2022/04/12 00:14:57;;;;;;;;;;;19.90;48.20;;;;;;5027244;28;19967;-51
2022/04/12 00:20:06;;;;;;;;;;;19.90;48.20;;;;;;5024913;28;19924;-52
2022/04/12 00:22:32;;;;;;;;;;;19.90;48.20;;;;;;5024895;28;19917;-49
2022/04/12 00:25:00;;;;;;;;;;;19.90;48.20;;;;;;5026216;28;20004;-52
2022/04/12 00:27:26;;;;;;;;;;;19.90;48.20;;;;;;5026198;28;20329;-53
2022/04/12 00:29:51;;;;;;;;;;;19.90;48.10;;;;;;5024052;28;19921;-50
2022/04/12 00:32:16;;;;;;;;;;;19.80;48.10;;;;;;5026134;28;19919;-51
2022/04/12 00:34:42;;;;;;;;;;;19.90;48.10;;;;;;5025305;28;19917;-49
2022/04/12 00:37:07;;;;;;;;;;;19.80;48.00;;;;;;5025898;28;20058;-50
2022/04/12 00:39:34;;;;;;;;;;;19.80;48.10;;;;;;5024104;28;20358;-50
2022/04/12 00:42:00;;;;;;;;;;;19.90;48.10;;;;;;5024527;28;19976;-54
2022/04/12 00:44:25;;;;;;;;;;;19.90;48.10;;;;;;5026395;28;19921;-51
2022/04/12 00:46:51;;;;;;;;;;;19.80;48.10;;;;;;5025819;28;19917;-48
2022/04/12 00:49:16;;;;;;;;;;;19.80;48.10;;;;;;5024385;28;20420;-50
2022/04/12 00:51:42;;;;;;;;;;;19.80;48.00;;;;;;5025754;28;19918;-51
2022/04/12 00:54:09;;;;;;;;;;;19.80;48.00;;;;;;5023896;28;19919;-51
2022/04/12 00:56:34;;;;;;;;;;;19.80;48.00;;;;;;5025729;28;19918;-52
2022/04/12 00:59:02;;;;;;;;;;;19.80;48.00;;;;;;5024616;28;19917;-53
2022/04/12 01:01:28;;;;;;;;;;;19.80;47.90;;;;;;5026463;28;19920;-52
2022/04/12 01:03:53;;;;;;;;;;;19.80;48.00;;;;;;5025507;28;19913;-51
2022/04/12 01:06:19;;;;;;;;;;;19.80;48.00;;;;;;5024148;28;24697;-49
2022/04/12 01:08:44;;;;;;;;;;;19.80;48.00;;;;;;5022014;28;19959;-50
2022/04/12 01:11:10;;;;;;;;;;;19.80;48.10;;;;;;5023904;28;19913;-52
2022/04/12 01:13:35;;;;;;;;;;;19.90;49.20;;;;;;5025637;28;19923;-59
2022/04/12 01:16:01;;;;;;;;;;;20.00;48.60;;;;;;5025501;28;20006;-59
2022/04/12 01:18:26;;;;;;;;;;;20.00;48.30;;;;;;5024420;28;20408;-57
2022/04/12 01:20:52;;;;;;;;;;;20.00;49.40;;;;;;5023571;28;19924;-58
2022/04/12 01:23:22;;;;;;;;;;;20.00;49.80;;;;;;5007189;28;19913;-58
2022/04/12 01:25:47;;;;;;;;;;;19.90;49.60;;;;;;5024155;28;19920;-58
2022/04/12 01:28:12;;;;;;;;;;;19.80;49.80;;;;;;5024629;28;20518;-57
2022/04/12 01:30:38;;;;;;;;;;;19.70;50.00;;;;;;5023465;28;19917;-59
2022/04/12 01:33:04;;;;;;;;;;;19.70;50.20;;;;;;5025148;28;19940;-59
2022/04/12 01:35:30;;;;;;;;;;;19.70;50.50;;;;;;5025353;28;19960;-65
2022/04/12 01:37:55;;;;;;;;;;;19.70;50.60;;;;;;5025102;28;20872;-59
2022/04/12 01:40:21;;;;;;;;;;;19.60;50.60;;;;;;5023396;28;20611;-58
2022/04/12 01:42:47;;;;;;;;;;;19.60;50.70;;;;;;5025256;28;19917;-59
2022/04/12 01:45:12;;;;;;;;;;;19.60;50.90;;;;;;5025197;28;19974;-58
2022/04/12 01:47:38;;;;;;;;;;;19.60;51.00;;;;;;5024804;28;19923;-56
2022/04/12 01:50:04;;;;;;;;;;;19.60;50.60;;;;;;5023205;28;19917;-59
2022/04/12 01:52:29;;;;;;;;;;;19.60;50.60;;;;;;5023913;28;19917;-60
2022/04/12 01:54:54;;;;;;;;;;;19.60;51.00;;;;;;5023966;28;19920;-60
2022/04/12 01:57:20;;;;;;;;;;;19.60;50.80;;;;;;5025215;28;19990;-60
2022/04/12 01:59:45;;;;;;;;;;;19.50;50.70;;;;;;5024139;28;19913;-59
2022/04/12 02:02:11;;;;;;;;;;;19.50;51.40;;;;;;5025165;28;19917;-58
2022/04/12 02:04:36;;;;;;;;;;;19.50;51.00;;;;;;5024923;28;20426;-59
2022/04/12 02:07:02;;;;;;;;;;;19.50;51.60;;;;;;5024971;28;20720;-59
2022/04/12 02:09:27;;;;;;;;;;;19.50;51.00;;;;;;5024838;28;20000;-58
2022/04/12 02:11:55;;;;;;;;;;;19.50;50.80;;;;;;5025042;28;19924;-58
2022/04/12 02:14:20;;;;;;;;;;;19.50;50.80;;;;;;5024730;28;19921;-58
2022/04/12 02:16:46;;;;;;;;;;;19.50;50.80;;;;;;5024363;28;20275;-59
2022/04/12 02:19:11;;;;;;;;;;;19.50;50.60;;;;;;5022738;28;19917;-58
2022/04/12 02:21:36;;;;;;;;;;;19.40;50.60;;;;;;5024139;28;19924;-58
2022/04/12 02:24:02;;;;;;;;;;;19.40;50.60;;;;;;5024648;28;20553;-59
2022/04/12 02:26:27;;;;;;;;;;;19.40;50.50;;;;;;5025194;28;19928;-59
2022/04/12 02:28:53;;;;;;;;;;;19.40;50.60;;;;;;5023250;28;19921;-59
2022/04/12 02:31:18;;;;;;;;;;;19.40;50.60;;;;;;5024768;28;19913;-59
2022/04/12 02:33:44;;;;;;;;;;;19.40;50.60;;;;;;5023866;28;20336;-58
2022/04/12 02:36:09;;;;;;;;;;;19.40;50.50;;;;;;5024166;28;19920;-58
2022/04/12 02:38:35;;;;;;;;;;;19.40;50.40;;;;;;5022767;28;19913;-58
2022/04/12 02:41:00;;;;;;;;;;;19.40;51.00;;;;;;5043205;22;20608;-50
2022/04/12 02:43:26;;;;;;;;;;;19.40;50.80;;;;;;5042186;28;19936;-55
2022/04/12 02:45:52;;;;;;;;;;;19.30;50.90;;;;;;5041090;28;19974;-54
2022/04/12 02:48:17;;;;;;;;;;;19.30;51.00;;;;;;5023010;28;19917;-58
2022/04/12 02:50:43;;;;;;;;;;;19.30;51.20;;;;;;5024204;28;19920;-54
2022/04/12 02:53:08;;;;;;;;;;;19.30;51.10;;;;;;5023948;28;20362;-52
2022/04/12 02:55:34;;;;;;;;;;;19.30;51.30;;;;;;5022845;28;19913;-52
2022/04/12 02:57:59;;;;;;;;;;;19.30;50.80;;;;;;5023238;28;19914;-54
2022/04/12 03:00:25;;;;;;;;;;;19.20;51.10;;;;;;5022577;28;20001;-51
2022/04/12 03:02:50;;;;;;;;;;;19.20;50.90;;;;;;5023487;28;20271;-54
2022/04/12 03:05:16;;;;;;;;;;;19.20;50.70;;;;;;5023118;28;19914;-53
2022/04/12 03:07:41;;;;;;;;;;;19.20;50.70;;;;;;5023452;28;20015;-56
2022/04/12 03:10:07;;;;;;;;;;;19.20;51.00;;;;;;5022766;28;19913;-52
2022/04/12 03:12:32;;;;;;;;;;;19.20;50.90;;;;;;5023078;28;19921;-54
2022/04/12 03:14:59;;;;;;;;;;;19.20;50.70;;;;;;5023684;28;19913;-54
2022/04/12 03:17:24;;;;;;;;;;;19.20;51.60;;;;;;5023030;28;19920;-56
2022/04/12 03:19:49;;;;;;;;;;;19.20;51.00;;;;;;5022453;28;19913;-55
2022/04/12 03:22:15;;;;;;;;;;;19.20;51.20;;;;;;5023192;28;19917;-54
2022/04/12 03:24:40;;;;;;;;;;;19.20;51.30;;;;;;5023948;28;20451;-55
2022/04/12 03:27:06;;;;;;;;;;;19.20;50.80;;;;;;5023501;28;19928;-54
2022/04/12 03:29:31;;;;;;;;;;;19.20;51.10;;;;;;5022634;28;19917;-54
2022/04/12 03:31:57;;;;;;;;;;;19.10;50.90;;;;;;5021234;28;19932;-52
2022/04/12 03:34:22;;;;;;;;;;;19.10;50.70;;;;;;5022113;28;20628;-55
2022/04/12 03:36:48;;;;;;;;;;;19.10;50.80;;;;;;5022924;28;19913;-56
2022/04/12 03:39:17;;;;;;;;;;;19.10;50.50;;;;;;5022389;28;19920;-55
2022/04/12 03:41:46;;;;;;;;;;;19.10;51.10;;;;;;5022693;28;20398;-54
2022/04/12 03:44:12;;;;;;;;;;;19.20;52.20;;;;;;5023210;28;19913;-54
2022/04/12 03:46:38;;;;;;;;;;;19.30;48.10;;;;;;5022613;28;19913;-55
2022/04/12 03:49:03;;;;;;;;;;;19.40;50.40;;;;;;5022371;28;20457;-56
2022/04/12 03:51:28;;;;;;;;;;;19.30;50.70;;;;;;5023349;28;19913;-53
2022/04/12 03:53:54;;;;;;;;;;;19.20;50.40;;;;;;5022630;28;19963;-55
2022/04/12 03:56:19;;;;;;;;;;;19.10;51.10;;;;;;5022476;28;20432;-55
2022/04/12 03:58:45;;;;;;;;;;;19.10;50.60;;;;;;5021105;28;19979;-57
2022/04/12 04:01:10;;;;;;;;;;;19.10;50.50;;;;;;5022886;28;20372;-55
2022/04/12 04:03:36;;;;;;;;;;;19.10;50.60;;;;;;5022492;28;19921;-55
2022/04/12 04:06:02;;;;;;;;;;;19.00;50.50;;;;;;5020696;28;19917;-53
2022/04/12 04:08:27;;;;;;;;;;;19.00;50.50;;;;;;5015236;28;20358;-57
2022/04/12 04:10:53;;;;;;;;;;;19.00;50.50;;;;;;5022556;28;19914;-59
2022/04/12 04:13:18;;;;;;;;;;;19.00;50.30;;;;;;5021144;28;20297;-52
2022/04/12 04:15:45;;;;;;;;;;;19.00;50.90;;;;;;5022511;28;19922;-54
2022/04/12 04:18:11;;;;;;;;;;;19.00;50.70;;;;;;5021758;28;20388;-54
2022/04/12 04:20:37;;;;;;;;;;;19.00;50.20;;;;;;5021268;28;19943;-57
2022/04/12 04:23:02;;;;;;;;;;;19.00;50.60;;;;;;5022637;28;20398;-50
2022/04/12 04:25:28;;;;;;;;;;;19.00;50.50;;;;;;5023415;28;19921;-54
2022/04/12 04:27:53;;;;;;;;;;;19.00;50.80;;;;;;5020824;28;19932;-55
2022/04/12 04:30:19;;;;;;;;;;;19.00;50.50;;;;;;5018189;28;19913;-54
2022/04/12 04:32:45;;;;;;;;;;;19.00;50.70;;;;;;5022321;28;19940;-54
2022/04/12 04:35:10;;;;;;;;;;;19.00;51.30;;;;;;5015239;28;20456;-55
2022/04/12 04:37:42;;;;;;;;;;;19.00;50.40;;;;;;5019455;28;20008;-54
2022/04/12 04:40:08;;;;;;;;;;;19.00;49.40;;;;;;5023898;28;19955;-53
2022/04/12 04:42:34;;;;;;;;;;;19.00;49.20;;;;;;5024324;28;19921;-53
2022/04/12 04:44:59;;;;;;;;;;;19.00;49.20;;;;;;5028584;28;19914;-55
2022/04/12 04:47:24;;;;;;;;;;;19.00;49.10;;;;;;5027167;28;19924;-55
2022/04/12 04:49:50;;;;;;;;;;;19.00;49.10;;;;;;5027278;28;20128;-55
2022/04/12 04:52:16;;;;;;;;;;;19.00;49.10;;;;;;5026976;28;19940;-53
2022/04/12 04:54:41;;;;;;;;;;;19.10;49.10;;;;;;5027603;28;19917;-53
2022/04/12 04:57:06;;;;;;;;;;;19.10;49.10;;;;;;5027318;28;20581;-54
2022/04/12 04:59:32;;;;;;;;;;;19.10;49.00;;;;;;5027528;28;19917;-51
2022/04/12 05:01:57;;;;;;;;;;;19.20;49.10;;;;;;5027408;28;20313;-55
2022/04/12 05:04:23;;;;;;;;;;;19.10;49.10;;;;;;5026885;28;19913;-54
2022/04/12 05:06:49;;;;;;;;;;;19.10;49.10;;;;;;5027287;28;19920;-55
2022/04/12 05:09:14;;;;;;;;;;;19.10;49.10;;;;;;5026667;28;19922;-52
2022/04/12 05:11:39;;;;;;;;;;;19.20;49.10;;;;;;5026895;28;19921;-56
2022/04/12 05:14:05;;;;;;;;;;;19.10;49.00;;;;;;5027819;28;19936;-53
2022/04/12 05:16:30;;;;;;;;;;;19.10;49.00;;;;;;5028029;28;19940;-53
2022/04/12 05:18:56;;;;;;;;;;;19.10;49.20;;;;;;5026818;28;20012;-54
2022/04/12 05:21:21;;;;;;;;;;;19.10;49.20;;;;;;5027132;28;20596;-54
2022/04/12 05:23:47;;;;;;;;;;;19.10;49.30;;;;;;5026356;28;19953;-57
2022/04/12 05:26:12;;;;;;;;;;;19.10;49.30;;;;;;5024133;28;19921;-55
2022/04/12 05:28:38;;;;;;;;;;;19.10;49.40;;;;;;5025890;28;20346;-53
2022/04/12 05:31:03;;;;;;;;;;;19.10;49.50;;;;;;5026457;28;19913;-48
2022/04/12 05:33:29;;;;;;;;;;;19.10;49.40;;;;;;5026260;28;19913;-51
2022/04/12 05:35:54;;;;;;;;;;;19.10;49.40;;;;;;5026487;28;19974;-55
2022/04/12 05:38:19;;;;;;;;;;;19.10;49.40;;;;;;5025232;28;19920;-52
2022/04/12 05:40:45;;;;;;;;;;;19.10;49.30;;;;;;5025365;28;19943;-55
2022/04/12 05:43:10;;;;;;;;;;;19.10;49.30;;;;;;5026322;28;19917;-54
2022/04/12 05:45:36;;;;;;;;;;;19.10;49.30;;;;;;5026276;28;20035;-50
2022/04/12 05:48:02;;;;;;;;;;;19.10;49.30;;;;;;5025069;28;19921;-54
2022/04/12 05:50:27;;;;;;;;;;;19.10;49.30;;;;;;5025473;28;19945;-51
2022/04/12 05:52:53;;;;;;;;;;;19.00;49.20;;;;;;5026177;28;19924;-53
2022/04/12 05:55:21;;;;;;;;;;;19.00;49.20;;;;;;5023859;28;19916;-53
2022/04/12 05:57:49;;;;;;;;;;;19.00;49.10;;;;;;5025831;28;19959;-54
2022/04/12 06:00:15;;;;;;;;;;;19.00;49.10;;;;;;5024237;28;19988;-54
2022/04/12 06:02:40;;;;;;;;;;;19.00;49.10;;;;;;5025486;28;20413;-53
2022/04/12 06:05:06;;;;;;;;;;;19.00;49.10;;;;;;5025913;28;20044;-53
2022/04/12 06:07:32;;;;;;;;;;;19.00;49.00;;;;;;5025222;28;19925;-55
2022/04/12 06:09:59;;;;;;;;;;;19.00;49.00;;;;;;5025504;28;19913;-52
2022/04/12 06:12:24;;;;;;;;;;;19.00;48.80;;;;;;5026007;28;20417;-54
2022/04/12 06:14:50;;;;;;;;;;;19.00;48.60;;;;;;5025687;28;20000;-52
2022/04/12 06:17:15;;;;;;;;;;;19.00;48.60;;;;;;5025676;28;19913;-52
2022/04/12 06:19:41;;;;;;;;;;;19.00;48.60;;;;;;5025421;28;19917;-53
2022/04/12 06:22:06;;;;;;;;;;;19.00;48.60;;;;;;5026241;28;20019;-53
2022/04/12 06:24:32;;;;;;;;;;;18.90;48.60;;;;;;5026362;28;19935;-54
2022/04/12 06:26:57;;;;;;;;;;;18.90;48.70;;;;;;5025681;28;19917;-50
2022/04/12 06:29:22;;;;;;;;;;;19.00;48.80;;;;;;5024084;28;19913;-51
2022/04/12 06:31:48;;;;;;;;;;;19.00;49.00;;;;;;5025832;28;19939;-51
2022/04/12 06:34:13;;;;;;;;;;;19.00;49.10;;;;;;5026039;28;19935;-54
2022/04/12 06:36:39;;;;;;;;;;;19.00;49.20;;;;;;5026155;28;19913;-52
2022/04/12 06:39:04;;;;;;;;;;;18.90;49.10;;;;;;5024475;28;19913;-52
2022/04/12 06:41:30;;;;;;;;;;;18.90;49.10;;;;;;5025870;28;19963;-52
2022/04/12 06:43:55;;;;;;;;;;;18.90;49.20;;;;;;5025974;28;19918;-56
2022/04/12 06:46:21;;;;;;;;;;;18.90;49.20;;;;;;5026712;28;19920;-54
2022/04/12 06:48:46;;;;;;;;;;;18.80;49.30;;;;;;5024788;28;19982;-54
2022/04/12 06:51:11;;;;;;;;;;;18.80;49.30;;;;;;5026393;28;19913;-55
2022/04/12 06:53:37;;;;;;;;;;;18.90;49.50;;;;;;5025742;28;19917;-54
2022/04/12 06:56:02;;;;;;;;;;;18.80;49.50;;;;;;5025928;28;19963;-53
2022/04/12 06:58:28;;;;;;;;;;;18.80;49.60;;;;;;5024804;28;19924;-53
2022/04/12 07:00:53;;;;;;;;;;;18.80;50.30;;;;;;5025496;28;20938;-57
2022/04/12 07:03:20;;;;;;;;;;;18.80;49.90;;;;;;5025532;28;19913;-54
2022/04/12 07:05:49;;;;;;;;;;;18.90;50.00;;;;;;5025733;28;19920;-54
2022/04/12 07:08:14;;;;;;;;;;;18.80;50.00;;;;;;5024767;28;20573;-53
2022/04/12 07:10:42;;;;;;;;;;;18.80;50.00;;;;;;5024755;28;19919;-52
2022/04/12 07:13:07;;;;;;;;;;;18.80;49.80;;;;;;5025554;28;19960;-55
2022/04/12 07:15:33;;;;;;;;;;;18.80;50.00;;;;;;5025788;28;19913;-53
2022/04/12 07:17:59;;;;;;;;;;;18.80;49.90;;;;;;5023215;28;19962;-59
2022/04/12 07:20:24;;;;;;;;;;;18.80;50.00;;;;;;5024047;28;19921;-50
2022/04/12 07:22:50;;;;;;;;;;;18.80;50.30;;;;;;5025489;28;19920;-51
2022/04/12 07:25:17;;;;;;;;;;;18.80;50.20;;;;;;5025338;28;19913;-52
2022/04/12 07:27:42;;;;;;;;;;;18.70;49.70;;;;;;5024642;28;20011;-53
2022/04/12 07:30:09;;;;;;;;;;;18.70;48.30;;;;;;5024041;28;19920;-51
2022/04/12 07:32:34;;;;;;;;;;;18.70;48.50;;;;;;5025324;28;19914;-53
2022/04/12 07:35:00;;;;;;;;;;;18.70;51.30;;;;;;5024764;28;19979;-51
2022/04/12 07:37:25;;;;;;;;;;;19.00;51.90;;;;;;5024857;28;19920;-55
2022/04/12 07:39:51;;;;;;;;;;;19.00;51.00;;;;;;5024107;28;19917;-53
2022/04/12 07:42:16;;;;;;;;;;;19.00;51.10;;;;;;5039493;28;19925;-52
2022/04/12 07:44:42;;;;;;;;;;;18.90;51.00;;;;;;5024684;28;19913;-52
2022/04/12 07:47:08;;;;;;;;;;;18.80;51.10;;;;;;5024801;28;19917;-54
2022/04/12 07:49:33;;;;;;;;;;;18.80;51.10;;;;;;5024696;28;19992;-51
2022/04/12 07:51:59;;;;;;;;;;;18.70;50.90;;;;;;5024446;28;19966;-54
2022/04/12 07:54:24;;;;;;;;;;;18.70;51.10;;;;;;5024329;28;20143;-53
2022/04/12 07:56:50;;;;;;;;;;;18.70;50.90;;;;;;5024410;28;19920;-51
2022/04/12 07:59:15;;;;;;;;;;;18.70;51.00;;;;;;5039489;28;19924;-51
2022/04/12 08:01:40;;;;;;;;;;;18.60;51.00;;;;;;5039735;28;19917;-52
2022/04/12 08:04:06;;;;;;;;;;;18.60;51.00;;;;;;5024487;28;19924;-51
2022/04/12 08:06:31;;;;;;;;;;;18.60;51.00;;;;;;5023660;28;20408;-56
2022/04/12 08:08:57;;;;;;;;;;;18.60;51.00;;;;;;5023687;28;19971;-55
2022/04/12 08:11:22;;;;;;;;;;;18.60;51.10;;;;;;5024198;28;19913;-56
2022/04/12 08:13:48;;;;;;;;;;;18.60;51.10;;;;;;5024253;28;19944;-55
2022/04/12 08:16:15;;;;;;;;;;;18.60;51.10;;;;;;5024224;28;19914;-55
2022/04/12 08:18:42;;;;;;;;;;;18.60;51.10;;;;;;5025784;28;19917;-54
2022/04/12 08:21:08;;;;;;;;;;;18.60;51.10;;;;;;5027862;28;19921;-53
2022/04/12 08:23:33;;;;;;;;;;;18.60;51.20;;;;;;5028308;28;19914;-53
2022/04/12 08:25:58;;;;;;;;;;;18.60;51.30;;;;;;5027685;28;19935;-52
2022/04/12 08:28:24;;;;;;;;;;;18.50;51.30;;;;;;5027423;28;19925;-53
2022/04/12 08:30:49;;;;;;;;;;;18.60;51.20;;;;;;5027186;28;19920;-53
2022/04/12 08:33:15;;;;;;;;;;;18.50;51.10;;;;;;5027758;28;20297;-52
2022/04/12 08:35:40;;;;;;;;;;;18.50;51.20;;;;;;5027361;28;19925;-55
2022/04/12 08:38:06;;;;;;;;;;;18.60;51.40;;;;;;5027358;28;19917;-54
2022/04/12 08:40:31;;;;;;;;;;;18.50;51.40;;;;;;5042703;22;19932;-59
2022/04/12 08:42:58;;;;;;;;;;;18.50;51.50;;;;;;5044554;28;20372;-58
2022/04/12 08:45:23;;;;;;;;;;;18.50;51.40;;;;;;5045733;28;19967;-59
2022/04/12 08:47:48;;;;;;;;;;;18.50;51.40;;;;;;5044377;28;19974;-59
2022/04/12 08:50:14;;;;;;;;;;;18.50;51.30;;;;;;5044428;28;19912;-58
2022/04/12 08:52:40;;;;;;;;;;;18.50;51.60;;;;;;5045700;28;20519;-56
2022/04/12 08:55:06;;;;;;;;;;;18.50;51.40;;;;;;5045758;28;19913;-58
2022/04/12 08:57:31;;;;;;;;;;;18.50;51.40;;;;;;5046561;28;19970;-61
2022/04/12 08:59:57;;;;;;;;;;;18.50;51.40;;;;;;5044746;28;19966;-58
2022/04/12 09:02:22;;;;;;;;;;;18.50;51.50;;;;;;5045527;28;19970;-59
2022/04/12 09:04:48;;;;;;;;;;;18.50;51.30;;;;;;5045675;28;19916;-59
2022/04/12 09:07:13;;;;;;;;;;;18.50;51.40;;;;;;5045090;28;19925;-58
2022/04/12 09:09:39;;;;;;;;;;;18.50;51.50;;;;;;5043837;28;19913;-61
2022/04/12 09:12:06;;;;;;;;;;;18.50;51.50;;;;;;5045880;28;20011;-66
2022/04/12 09:14:56;;;;;;;;;;;18.50;51.40;;;;;;5045637;28;19913;-60
2022/04/12 09:17:32;;;;;;;;;;;18.50;51.40;;;;;;5044269;28;19916;-60
2022/04/12 09:19:57;;;;;;;;;;;18.50;51.40;;;;;;5044505;28;20004;-59
2022/04/12 09:22:23;;;;;;;;;;;18.50;51.40;;;;;;5043416;28;19917;-61
2022/04/12 09:24:58;;;;;;;;;;;18.50;51.50;;;;;;5043247;28;19924;-60
2022/04/12 09:27:25;;;;;;;;;;;18.50;51.50;;;;;;5044770;28;19920;-59
2022/04/12 09:29:57;;;;;;;;;;;18.40;51.40;;;;;;5042207;28;19963;-60
2022/04/12 09:32:24;;;;;;;;;;;18.50;51.50;;;;;;5044358;28;19917;-57
2022/04/12 09:34:49;;;;;;;;;;;18.40;51.40;;;;;;5042530;28;20802;-59
2022/04/12 09:37:18;;;;;;;;;;;18.50;51.40;;;;;;5043656;28;19917;-58
2022/04/12 09:39:54;;;;;;;;;;;18.50;51.50;;;;;;5044254;28;19921;-58
2022/04/12 09:42:39;;;;;;;;;;;18.50;51.50;;;;;;5045378;28;19951;-60
2022/04/12 09:45:05;;;;;;;;;;;18.40;51.40;;;;;;5045358;28;20413;-59
2022/04/12 09:47:31;;;;;;;;;;;18.40;51.40;;;;;;5045130;28;19924;-59
2022/04/12 09:49:56;;;;;;;;;;;18.40;51.40;;;;;;5043415;28;20133;-61
2022/04/12 09:52:22;;;;;;;;;;;18.40;51.40;;;;;;5045006;28;19927;-60
2022/04/12 09:54:48;;;;;;;;;;;18.40;51.40;;;;;;5044639;28;19923;-60
2022/04/12 09:57:13;;;;;;;;;;;18.40;51.50;;;;;;5044350;28;20378;-58
2022/04/12 09:59:39;;;;;;;;;;;18.40;51.40;;;;;;5043263;28;19990;-60
2022/04/12 10:02:04;;;;;;;;;;;18.40;51.40;;;;;;5045120;28;19974;-61
2022/04/12 10:04:30;;;;;;;;;;;18.40;51.40;;;;;;5044120;28;19921;-60
2022/04/12 10:06:55;;;;;;;;;;;18.40;51.40;;;;;;5042987;28;19925;-59
2022/04/12 10:09:21;;;;;;;;;;;18.40;51.40;;;;;;5043209;28;19917;-60
2022/04/12 10:11:47;;;;;;;;;;;18.40;51.50;;;;;;5044433;28;19934;-60
2022/04/12 10:14:12;;;;;;;;;;;18.40;51.50;;;;;;5044388;28;20645;-60
2022/04/12 10:16:39;;;;;;;;;;;18.40;51.50;;;;;;5044385;28;19952;-59
2022/04/12 10:19:04;;;;;;;;;;;18.40;51.40;;;;;;5041412;28;19916;-60
2022/04/12 10:21:30;;;;;;;;;;;18.40;51.40;;;;;;5042585;28;19923;-60
2022/04/12 10:23:56;;;;;;;;;;;18.40;51.50;;;;;;5042662;28;19927;-59
2022/04/12 10:26:22;;;;;;;;;;;18.40;51.50;;;;;;5042757;28;19917;-58
2022/04/12 10:28:50;;;;;;;;;;;18.40;51.60;;;;;;5040647;28;20153;-61
2022/04/12 10:31:15;;;;;;;;;;;18.40;51.50;;;;;;5026282;28;19916;-61
2022/04/12 10:33:49;;;;;;;;;;;18.40;51.50;;;;;;5041211;28;19924;-59
2022/04/12 10:36:14;;;;;;;;;;;18.40;51.60;;;;;;5057972;28;19917;-59
2022/04/12 10:38:40;;;;;;;;;;;18.40;51.50;;;;;;5056912;28;19917;-60
2022/04/12 10:41:32;;;;;;;;;;;18.40;51.60;;;;;;5042797;28;19917;-58
2022/04/12 10:43:57;;;;;;;;;;;18.40;51.50;;;;;;5041427;28;19921;-59
2022/04/12 10:46:23;;;;;;;;;;;18.40;51.60;;;;;;5042996;28;19917;-58
2022/04/12 10:48:55;;;;;;;;;;;18.40;51.60;;;;;;5041040;28;19928;-59
2022/04/12 10:51:36;;;;;;;;;;;18.40;51.60;;;;;;5042849;28;19917;-58
2022/04/12 10:54:01;;;;;;;;;;;18.40;51.60;;;;;;5042337;28;21402;-59
2022/04/12 10:56:27;;;;;;;;;;;18.40;51.70;;;;;;5042519;28;20086;-59
2022/04/12 10:58:52;;;;;;;;;;;18.40;52.40;;;;;;5041061;28;19916;-57
2022/04/12 11:01:28;;;;;;;;;;;18.40;51.70;;;;;;5043021;28;20385;-58
2022/04/12 11:03:54;;;;;;;;;;;18.40;51.60;;;;;;5040588;28;19921;-59
2022/04/12 11:06:22;;;;;;;;;;;18.40;51.70;;;;;;5051167;28;19985;-59
2022/04/12 11:08:51;;;;;;;;;;;18.40;51.70;;;;;;5048893;28;19912;-58
2022/04/12 11:11:17;;;;;;;;;;;18.40;51.70;;;;;;5053907;28;19913;-58
2022/04/12 11:13:44;;;;;;;;;;;18.40;51.80;;;;;;5029984;28;20008;-60
2022/04/12 11:16:10;;;;;;;;;;;18.40;51.70;;;;;;5042501;28;19916;-58
2022/04/12 11:18:45;;;;;;;;;;;18.40;51.70;;;;;;5029496;28;19978;-58
2022/04/12 11:21:10;;;;;;;;;;;18.40;51.70;;;;;;5042831;28;20023;-58
2022/04/12 11:23:43;;;;;;;;;;;18.40;51.80;;;;;;5029496;28;19917;-58
2022/04/12 11:26:25;;;;;;;;;;;18.40;51.70;;;;;;5043517;28;20324;-59
2022/04/12 11:28:51;;;;;;;;;;;18.40;51.70;;;;;;5030865;28;19921;-62
2022/04/12 11:31:16;;;;;;;;;;;18.40;51.60;;;;;;5042364;28;19913;-59
2022/04/12 11:33:42;;;;;;;;;;;18.40;51.70;;;;;;5030275;28;20301;-58
2022/04/12 11:36:07;;;;;;;;;;;18.40;51.80;;;;;;5041254;28;19920;-58
2022/04/12 11:38:32;;;;;;;;;;;18.30;51.80;;;;;;5031468;28;19921;-57
2022/04/12 11:41:01;;;;;;;;;;;18.30;51.70;;;;;;5040899;28;19916;-57
2022/04/12 11:43:27;;;;;;;;;;;18.40;51.90;;;;;;5028859;28;19954;-61
2022/04/12 11:45:58;;;;;;;;;;;18.40;51.80;;;;;;5041814;28;19917;-58
2022/04/12 11:48:30;;;;;;;;;;;18.40;51.80;;;;;;5039429;28;20447;-58
2022/04/12 11:50:56;;;;;;;;;;;18.40;51.70;;;;;;5042204;28;19917;-57
2022/04/12 11:53:22;;;;;;;;;;;18.30;51.80;;;;;;5030130;28;19917;-60
2022/04/12 11:55:47;;;;;;;;;;;18.40;51.80;;;;;;5039760;28;20032;-59
2022/04/12 11:58:13;;;;;;;;;;;18.30;51.60;;;;;;5043986;28;19916;-60
2022/04/12 12:00:39;;;;;;;;;;;18.30;51.60;;;;;;5041658;28;20640;-60
2022/04/12 12:03:05;;;;;;;;;;;18.30;51.90;;;;;;5030734;28;19913;-59
2022/04/12 12:05:30;;;;;;;;;;;18.40;51.80;;;;;;5041618;28;20285;-60
2022/04/12 12:08:01;;;;;;;;;;;18.40;51.80;;;;;;5042643;28;19920;-58
2022/04/12 12:10:29;;;;;;;;;;;18.30;51.90;;;;;;5043019;28;19913;-60
2022/04/12 12:12:54;;;;;;;;;;;18.40;51.80;;;;;;5020007;28;19972;-61
2022/04/12 12:15:24;;;;;;;;;;;18.40;51.70;;;;;;5040442;28;20419;-58
2022/04/12 12:17:52;;;;;;;;;;;18.30;51.70;;;;;;5040688;28;19913;-59
2022/04/12 12:20:18;;;;;;;;;;;18.40;52.00;;;;;;5043278;28;19961;-59
2022/04/12 12:22:46;;;;;;;;;;;18.40;51.90;;;;;;5029210;28;19955;-57
2022/04/12 12:25:18;;;;;;;;;;;18.40;51.80;;;;;;5034026;28;19917;-58
2022/04/12 12:27:47;;;;;;;;;;;18.40;51.70;;;;;;5040335;28;19917;-58
2022/04/12 12:30:20;;;;;;;;;;;18.40;52.60;;;;;;5045480;28;19917;-60
2022/04/12 12:32:45;;;;;;;;;;;18.40;52.10;;;;;;5028630;28;20047;-59
2022/04/12 12:35:12;;;;;;;;;;;18.40;52.00;;;;;;5041123;28;20553;-59
2022/04/12 12:37:37;;;;;;;;;;;18.40;52.20;;;;;;5029369;28;19995;-60
2022/04/12 12:40:04;;;;;;;;;;;18.40;52.20;;;;;;5039547;28;20012;-60
2022/04/12 12:42:36;;;;;;;;;;;18.40;52.00;;;;;;5038460;28;19971;-58
2022/04/12 12:45:09;;;;;;;;;;;18.40;52.20;;;;;;5047040;28;19960;-59
2022/04/12 12:47:35;;;;;;;;;;;18.40;52.20;;;;;;5022306;28;19921;-58
2022/04/12 12:50:00;;;;;;;;;;;18.40;52.20;;;;;;5033819;28;19913;-58
2022/04/12 12:52:26;;;;;;;;;;;18.40;52.20;;;;;;5047809;28;19923;-58
2022/04/12 12:54:55;;;;;;;;;;;18.40;52.30;;;;;;5039922;28;19913;-58
2022/04/12 12:57:40;;;;;;;;;;;18.40;52.50;;;;;;5028374;28;19917;-60
2022/04/12 13:00:06;;;;;;;;;;;18.40;52.40;;;;;;5025305;28;19963;-57
2022/04/12 13:02:32;;;;;;;;;;;18.40;52.60;;;;;;5032614;28;19913;-59
2022/04/12 13:05:00;;;;;;;;;;;18.40;52.60;;;;;;5035220;28;19917;-59
2022/04/12 13:07:29;;;;;;;;;;;18.40;52.50;;;;;;5035270;28;19919;-62
2022/04/12 13:09:55;;;;;;;;;;;18.40;52.50;;;;;;5050202;28;19913;-61
2022/04/12 13:12:22;;;;;;;;;;;18.40;52.30;;;;;;5013886;28;20370;-60
2022/04/12 13:14:47;;;;;;;;;;;18.40;52.40;;;;;;5026425;28;19943;-60
2022/04/12 13:17:12;;;;;;;;;;;18.40;52.20;;;;;;5044251;28;19924;-61
2022/04/12 13:19:38;;;;;;;;;;;18.40;52.20;;;;;;5042435;28;19913;-61
2022/04/12 13:22:03;;;;;;;;;;;18.40;52.20;;;;;;5013785;28;19982;-60
2022/04/12 13:24:30;;;;;;;;;;;18.40;52.00;;;;;;5034921;28;19913;-59
2022/04/12 13:26:56;;;;;;;;;;;18.40;52.10;;;;;;5036259;28;20361;-61
2022/04/12 13:29:22;;;;;;;;;;;18.40;52.00;;;;;;5055304;28;19917;-58
2022/04/12 13:31:47;;;;;;;;;;;18.40;52.10;;;;;;5024340;28;20377;-58
2022/04/12 13:34:13;;;;;;;;;;;18.40;51.90;;;;;;5036535;28;19917;-59
2022/04/12 13:36:38;;;;;;;;;;;18.40;52.00;;;;;;5030359;28;20389;-60
2022/04/12 13:39:04;;;;;;;;;;;18.40;52.00;;;;;;5057526;28;19952;-60
2022/04/12 13:41:30;;;;;;;;;;;18.40;51.90;;;;;;5025407;28;20176;-61
2022/04/12 13:43:56;;;;;;;;;;;18.40;51.70;;;;;;5023948;28;20374;-59
2022/04/12 13:46:21;;;;;;;;;;;18.40;51.90;;;;;;5033788;28;20305;-58
2022/04/12 13:48:47;;;;;;;;;;;18.40;51.90;;;;;;5047838;28;20299;-59
2022/04/12 13:51:13;;;;;;;;;;;18.40;51.80;;;;;;5038356;28;19999;-60
2022/04/12 13:53:38;;;;;;;;;;;18.40;51.90;;;;;;5014121;28;19919;-59
2022/04/12 13:56:04;;;;;;;;;;;18.40;51.90;;;;;;5038689;28;19917;-59
2022/04/12 13:58:29;;;;;;;;;;;18.40;52.00;;;;;;5047505;28;19920;-60
2022/04/12 14:00:55;;;;;;;;;;;18.40;51.90;;;;;;5044425;28;19917;-58
2022/04/12 14:03:20;;;;;;;;;;;18.40;51.70;;;;;;5013165;28;19967;-58
2022/04/12 14:05:46;;;;;;;;;;;18.40;51.90;;;;;;5027256;28;19916;-60
2022/04/12 14:08:12;;;;;;;;;;;18.40;51.90;;;;;;5046195;28;19923;-57
2022/04/12 14:10:38;;;;;;;;;;;18.40;51.90;;;;;;5043828;28;19923;-60
2022/04/12 14:13:05;;;;;;;;;;;18.40;52.00;;;;;;5029443;28;20396;-58